Flight Track Log - Related Links

Times and Time Zones

All times are in EDT time to prevent confusion due to time zone crossing. See the EGF5005 flight status page for this flight to view local times or setup timezone preferences in your user account.

Time Position Orientation Groundspeed Altitude Reporting Facility
EDT Latitude Longitude Course Direction KTS MPH feet Rate Location/Type
Fri 12:15:32 PM 42.8667 -85.5620 244° Southwest  Level Estimated
Fri 12:16:32 PM 42.8401 -85.6354 244° Southwest  Level Estimated
Fri 12:17:32 PM 42.8134 -85.7087 244° Southwest  Level Estimated
Fri 12:18:32 PM 42.7867 -85.7820 244° Southwest  Level Estimated
Fri 12:19:32 PM 42.7600 -85.8551 244° Southwest  Level Estimated
Fri 12:20:32 PM 42.7332 -85.9283 243° Southwest  Level Estimated
Fri 12:21:32 PM 42.7063 -86.0014 243° Southwest  Level Estimated
Fri 12:22:32 PM 42.6794 -86.0744 243° Southwest  Level Estimated
Fri 12:23:32 PM 42.6525 -86.1473 243° Southwest  Level Estimated
Fri 12:24:32 PM 42.6255 -86.2202 243° Southwest  Level Estimated
Fri 12:25:32 PM 42.5985 -86.2930 243° Southwest  Level Estimated
Fri 12:26:32 PM 42.5714 -86.3658 243° Southwest  Level Estimated
Fri 12:27:32 PM 42.5443 -86.4385 243° Southwest  Level Estimated
Fri 12:28:32 PM 42.5172 -86.5111 243° Southwest  Level Estimated
Fri 12:29:32 PM 42.4900 -86.5837 243° Southwest  Level Estimated
Fri 12:30:32 PM 42.4627 -86.6562 243° Southwest  Level Estimated
Fri 12:31:32 PM 42.4354 -86.7286 243° Southwest  Level Estimated
Fri 12:32:32 PM 42.4081 -86.8010 243° Southwest  Level Estimated
Fri 12:33:32 PM 42.3807 -86.8733 243° Southwest  Level Estimated
Fri 12:34:32 PM 42.3532 -86.9456 243° Southwest  Level Estimated
Fri 12:35:32 PM 42.3257 -87.0178 243° Southwest  Level Estimated
Fri 12:36:32 PM 42.2982 -87.0899 243° Southwest  Level Estimated
Fri 12:37:32 PM 42.2668 -87.1719 243° Southwest  Level Estimated
Fri 12:38:32 PM 42.2354 -87.2538 243° Southwest  Level Estimated
Fri 12:39:32 PM 42.2016 -87.3417 243° Southwest  Level Estimated
Fri 12:40:32 PM 42.1677 -87.4295 242° Southwest  Level Estimated
Fri 12:41:32 PM 42.1337 -87.5172 242° Southwest  Level Estimated
Fri 12:42:32 PM 42.0997 -87.6048 242° Southwest  Level Estimated
Fri 12:43:32 PM 42.0629 -87.6993 242° Southwest  Level Estimated
Fri 12:44:32 PM 42.0260 -87.7937 242° Southwest  Level Estimated
Fri 12:45:32 PM 41.9819 -87.9060 242° Southwest  Level Estimated

Login

Don't have an account? Register now (free) for customized features, flight alerts, and more!